Albany, New York
Traffic Map
Current Weather Conditions
Albany, New York
Overcast Light Rain
Overcast
22°
Feels Like: 22°
Wind Chill: 22° Ceiling: 7000
Heat Index: 22° Visibility: 4mi
Dew Point: 21° Wind: 6mph
Humidity: 91% Direction: 150° (SSE)
Pressure: 29.93in Gusts: 0mph
Raw Report DataKALB 260751Z 15005KT 4SM -RA BR SCT055 BKN070 OVC090 22/21 A2993 RMK AO2 RAB21 SLP134 P0003 T02220206
Traffic Incident Summary
Active as of:
Severity:
Category:
InformationThere was an issue retrieving the traffic information for this location. Please try a different location or try again shortly.
Advertisements
Track Severe Weather on mobile